createdAt,value
2018-09-30T04:48:19.693Z,8.07
2018-09-30T04:50:48.214Z,5.93
2018-09-30T04:53:16.706Z,6.53
2018-09-30T04:55:45.209Z,6.73
2018-09-30T04:58:13.684Z,8.13
2018-09-30T05:00:42.182Z,8.67
2018-09-30T05:03:10.682Z,6.10
2018-09-30T05:05:39.252Z,10.57
2018-09-30T05:08:07.894Z,5.93
2018-09-30T05:10:36.399Z,8.20
2018-09-30T05:13:04.892Z,7.70
2018-09-30T05:15:33.405Z,7.80
2018-09-30T05:18:01.941Z,6.50
2018-09-30T05:20:30.461Z,5.77
2018-09-30T05:22:58.955Z,12.10
2018-09-30T05:25:27.514Z,11.33
2018-09-30T05:27:56.004Z,10.63
2018-09-30T05:30:24.482Z,81.40
2018-09-30T05:32:53.020Z,117.27
2018-09-30T05:35:21.507Z,54.03
2018-09-30T05:37:50.065Z,8.70
2018-09-30T05:40:18.554Z,7.63
2018-09-30T05:42:47.066Z,11.13
2018-09-30T05:45:15.554Z,11.53
2018-09-30T05:47:44.078Z,10.53
2018-09-30T05:50:12.596Z,17.97
2018-09-30T05:52:41.088Z,22.40
2018-09-30T05:55:09.644Z,32.50
2018-09-30T05:57:38.217Z,23.83
2018-09-30T06:00:06.849Z,24.23
2018-09-30T06:02:35.366Z,22.00
2018-09-30T06:05:03.947Z,19.70
2018-09-30T06:07:32.485Z,7.63
2018-09-30T06:10:01.001Z,6.80
2018-09-30T06:12:29.522Z,6.17
2018-09-30T06:14:58.054Z,7.97
2018-09-30T06:17:26.580Z,7.03
2018-09-30T06:19:55.070Z,11.23
2018-09-30T06:22:23.605Z,8.27
2018-09-30T06:24:52.083Z,9.33
2018-09-30T06:27:20.605Z,10.10
2018-09-30T06:29:49.080Z,10.33
2018-09-30T06:32:18.154Z,8.17
2018-09-30T06:34:46.737Z,11.07
2018-09-30T06:37:15.491Z,10.20
2018-09-30T06:39:44.100Z,8.23
2018-09-30T06:42:12.672Z,5.20
2018-09-30T06:44:41.412Z,8.97
2018-09-30T06:47:10.422Z,9.60
2018-09-30T06:49:38.936Z,8.13
2018-09-30T06:52:07.535Z,7.13
2018-09-30T06:54:36.112Z,6.77
2018-09-30T06:57:05.753Z,6.87
2018-09-30T06:59:34.338Z,10.53
2018-09-30T07:02:02.883Z,8.73
2018-09-30T07:04:31.461Z,11.97
2018-09-30T07:07:00.246Z,9.93
2018-09-30T07:09:28.775Z,10.13
2018-09-30T07:11:57.358Z,7.80
2018-09-30T07:14:25.838Z,7.27
2018-09-30T07:16:54.518Z,8.37
2018-09-30T07:19:23.012Z,10.20
2018-09-30T07:21:51.542Z,6.60
2018-09-30T07:24:20.077Z,7.37
2018-09-30T07:26:48.592Z,8.60
2018-09-30T07:29:20.216Z,7.87
2018-09-30T07:31:49.660Z,7.87
2018-09-30T07:34:18.313Z,6.03
2018-09-30T07:36:46.970Z,6.20
2018-09-30T07:39:16.259Z,6.50
2018-09-30T07:41:44.885Z,8.20
2018-09-30T07:44:13.497Z,7.17
2018-09-30T07:46:42.098Z,6.47
2018-09-30T07:49:11.744Z,5.23
2018-09-30T07:51:40.355Z,7.63
2018-09-30T07:54:09.194Z,6.23
2018-09-30T07:56:39.270Z,6.83
2018-09-30T07:59:10.424Z,7.50
2018-09-30T08:01:39.268Z,4.70
2018-09-30T08:04:08.224Z,6.23
2018-09-30T08:06:36.977Z,6.87
2018-09-30T08:09:07.554Z,4.97
2018-09-30T08:11:36.357Z,5.70
2018-09-30T08:14:04.986Z,6.63
2018-09-30T08:16:33.808Z,7.07
2018-09-30T08:19:02.470Z,8.87
2018-09-30T08:21:31.238Z,11.13
2018-09-30T08:23:59.848Z,8.90
2018-09-30T08:26:28.316Z,7.43
2018-09-30T08:28:56.869Z,15.33
2018-09-30T08:31:25.414Z,9.57
2018-09-30T08:33:54.185Z,11.50
2018-09-30T08:36:23.349Z,10.50
2018-09-30T08:38:51.905Z,11.60
2018-09-30T08:41:22.516Z,10.63
2018-09-30T08:43:51.165Z,8.67
2018-09-30T08:46:19.714Z,9.40
2018-09-30T08:48:48.285Z,8.93
2018-09-30T08:51:16.815Z,7.97
2018-09-30T08:53:45.408Z,9.00
2018-09-30T08:56:16.053Z,6.37
2018-09-30T08:58:47.159Z,9.77
2018-09-30T09:01:17.165Z,6.80
2018-09-30T09:03:45.799Z,8.77
2018-09-30T09:06:14.605Z,9.17
2018-09-30T09:08:43.224Z,8.70
2018-09-30T09:11:11.813Z,5.10
2018-09-30T09:13:40.582Z,4.87
2018-09-30T09:16:09.203Z,5.77
2018-09-30T09:18:39.148Z,4.50
2018-09-30T09:21:07.837Z,5.87
2018-09-30T09:23:36.454Z,8.23
2018-09-30T09:26:05.205Z,5.07
2018-09-30T09:28:33.755Z,7.33
2018-09-30T09:31:02.374Z,4.57
2018-09-30T09:33:31.011Z,7.73
2018-09-30T09:35:59.593Z,6.67
2018-09-30T09:38:28.379Z,3.87
2018-09-30T09:40:56.856Z,7.17
2018-09-30T09:43:25.384Z,6.97
2018-09-30T09:45:53.863Z,6.13
2018-09-30T09:48:22.505Z,4.37
2018-09-30T09:50:52.922Z,6.40
2018-09-30T09:53:21.673Z,7.23
2018-09-30T09:55:52.003Z,6.20
2018-09-30T09:58:23.423Z,7.27
2018-09-30T10:00:53.527Z,6.53
2018-09-30T10:03:24.064Z,5.80
2018-09-30T10:05:54.449Z,3.97
2018-09-30T10:08:25.774Z,6.57
2018-09-30T10:10:56.868Z,5.87
2018-09-30T10:13:27.295Z,6.47
2018-09-30T10:15:57.840Z,4.67
2018-09-30T10:18:28.958Z,5.83
2018-09-30T10:20:59.452Z,6.90
2018-09-30T10:23:32.215Z,5.07
2018-09-30T10:26:08.653Z,6.00
2018-09-30T10:28:44.384Z,5.93
2018-09-30T10:31:15.769Z,7.90
2018-09-30T10:33:46.418Z,5.70
2018-09-30T10:36:17.015Z,4.70
2018-09-30T10:38:45.835Z,11.73
2018-09-30T10:41:16.276Z,8.80
2018-09-30T10:43:47.873Z,6.60
2018-09-30T10:46:23.010Z,8.17
2018-09-30T10:48:53.105Z,7.37
2018-09-30T10:51:23.633Z,5.40
2018-09-30T10:53:55.845Z,4.90
2018-09-30T10:56:27.189Z,6.80
2018-09-30T10:58:57.599Z,5.23
2018-09-30T11:01:27.290Z,6.50
2018-09-30T11:03:57.349Z,5.47
2018-09-30T11:06:26.889Z,5.63
2018-09-30T11:08:57.939Z,6.40
2018-09-30T11:11:26.570Z,7.27
2018-09-30T11:13:55.136Z,7.20
2018-09-30T11:16:24.226Z,9.13
2018-09-30T11:18:52.729Z,6.03
2018-09-30T11:21:21.377Z,6.50
2018-09-30T11:23:49.917Z,6.53
2018-09-30T11:26:18.547Z,5.97
2018-09-30T11:28:48.171Z,6.47
2018-09-30T11:31:19.581Z,6.53
2018-09-30T11:33:49.187Z,7.07
2018-09-30T11:36:19.524Z,5.50
2018-09-30T11:38:49.395Z,5.37
2018-09-30T11:41:22.424Z,8.33
2018-09-30T11:43:53.674Z,9.20
2018-09-30T11:46:24.259Z,12.10
2018-09-30T11:48:52.989Z,8.20
2018-09-30T11:51:21.547Z,6.90
2018-09-30T11:53:52.545Z,7.30
2018-09-30T11:56:24.605Z,10.90
2018-09-30T11:58:54.725Z,8.10
2018-09-30T12:01:23.595Z,7.57
2018-09-30T12:03:53.891Z,7.13
2018-09-30T12:06:24.109Z,9.27
2018-09-30T12:08:55.498Z,9.07
2018-09-30T12:11:26.220Z,8.37
2018-09-30T12:13:56.458Z,8.13
2018-09-30T12:16:26.139Z,7.50
2018-09-30T12:18:56.238Z,7.50
2018-09-30T12:21:29.918Z,8.23
2018-09-30T12:24:00.471Z,8.63
2018-09-30T12:26:31.535Z,7.00
2018-09-30T12:29:01.830Z,9.50
2018-09-30T12:31:33.084Z,7.37
2018-09-30T12:34:03.725Z,7.97
2018-09-30T12:36:33.578Z,6.53
2018-09-30T12:39:04.565Z,7.17
2018-09-30T12:41:35.838Z,8.60
2018-09-30T12:44:04.554Z,7.33
2018-09-30T12:46:33.139Z,8.40
2018-09-30T12:49:01.910Z,7.57
2018-09-30T12:51:30.632Z,6.40
2018-09-30T12:53:59.294Z,6.70
2018-09-30T12:56:29.323Z,6.30
2018-09-30T12:58:57.898Z,7.20
2018-09-30T13:01:26.446Z,5.93
2018-09-30T13:03:55.560Z,6.47
2018-09-30T13:06:24.228Z,6.40
2018-09-30T13:08:52.735Z,10.73
2018-09-30T13:11:23.607Z,8.67
2018-09-30T13:13:52.177Z,7.50
2018-09-30T13:16:20.727Z,8.17
2018-09-30T13:18:49.339Z,6.87
2018-09-30T13:21:18.353Z,6.13
2018-09-30T13:23:46.910Z,7.13
2018-09-30T13:26:15.612Z,7.00
2018-09-30T13:28:44.191Z,6.47
2018-09-30T13:31:13.829Z,5.23
2018-09-30T13:33:42.420Z,6.07
2018-09-30T13:36:11.032Z,6.47
2018-09-30T13:38:39.634Z,9.43
2018-09-30T13:41:08.458Z,11.33
2018-09-30T13:43:36.726Z,12.07
2018-09-30T13:46:05.367Z,6.27
2018-09-30T13:48:33.864Z,9.37
2018-09-30T13:51:02.538Z,5.83
2018-09-30T13:53:31.148Z,6.07
2018-09-30T13:56:00.884Z,8.30
2018-09-30T13:58:29.511Z,6.75
2018-09-30T14:00:58.114Z,7.28
2018-09-30T14:03:26.829Z,8.13
2018-09-30T14:05:55.484Z,7.87
2018-09-30T14:08:24.082Z,8.25
2018-09-30T14:10:52.638Z,6.45
2018-09-30T14:13:21.466Z,7.47
2018-09-30T14:15:50.061Z,7.67
2018-09-30T14:18:18.590Z,6.37
2018-09-30T14:20:47.270Z,5.85
2018-09-30T14:23:15.834Z,7.67
2018-09-30T14:25:44.390Z,10.25
2018-09-30T14:28:13.027Z,7.12
2018-09-30T14:30:41.590Z,7.05
2018-09-30T14:33:12.462Z,5.80
2018-09-30T14:35:41.351Z,7.53
2018-09-30T14:38:11.102Z,7.53
2018-09-30T14:40:39.660Z,5.90
2018-09-30T14:43:09.480Z,7.90
2018-09-30T14:45:38.105Z,5.95
2018-09-30T14:48:08.372Z,7.55
2018-09-30T14:50:36.961Z,7.92
2018-09-30T14:53:07.300Z,10.20
2018-09-30T14:55:35.939Z,9.00
2018-09-30T14:58:04.489Z,10.55
2018-09-30T15:00:33.037Z,5.72
2018-09-30T15:03:01.568Z,7.37
2018-09-30T15:05:30.173Z,4.97
2018-09-30T15:07:58.783Z,6.65
2018-09-30T15:10:27.306Z,6.35
2018-09-30T15:12:55.840Z,5.62
2018-09-30T15:15:24.380Z,5.00
2018-09-30T15:17:52.895Z,5.53
2018-09-30T15:20:21.651Z,5.50
2018-09-30T15:22:50.790Z,7.87
2018-09-30T15:25:19.852Z,8.45
2018-09-30T15:27:48.478Z,4.12
2018-09-30T15:30:17.000Z,5.80
2018-09-30T15:32:45.606Z,9.30
2018-09-30T15:35:14.130Z,7.15
2018-09-30T15:37:42.659Z,5.72
2018-09-30T15:40:11.212Z,4.08
2018-09-30T15:42:39.773Z,5.58
2018-09-30T15:45:08.362Z,4.80
2018-09-30T15:47:36.946Z,4.78
2018-09-30T15:50:05.934Z,6.50
2018-09-30T15:52:34.483Z,5.83
2018-09-30T15:55:03.026Z,3.42
2018-09-30T15:57:32.393Z,5.45
2018-09-30T16:00:01.377Z,5.47
2018-09-30T16:02:29.957Z,4.23
2018-09-30T16:04:58.560Z,5.57
2018-09-30T16:07:27.081Z,11.77
2018-09-30T16:09:55.694Z,5.53
2018-09-30T16:12:24.314Z,3.43
2018-09-30T16:14:53.047Z,6.20
2018-09-30T16:17:22.554Z,4.33
2018-09-30T16:19:56.501Z,4.23
2018-09-30T16:22:25.113Z,5.23
2018-09-30T16:24:53.766Z,7.60
2018-09-30T16:27:22.694Z,5.53
2018-09-30T16:29:51.240Z,3.70
2018-09-30T16:32:19.747Z,6.20
2018-09-30T16:34:48.269Z,4.00
2018-09-30T16:37:16.842Z,6.60
2018-09-30T16:39:45.474Z,4.30
2018-09-30T16:42:14.011Z,4.93
2018-09-30T16:44:42.602Z,4.50
2018-09-30T16:47:11.274Z,5.97
2018-09-30T16:49:39.873Z,8.90
2018-09-30T16:52:08.456Z,7.30
2018-09-30T16:54:41.078Z,7.53
2018-09-30T16:57:10.479Z,5.90
2018-09-30T16:59:40.503Z,5.80
2018-09-30T17:02:11.764Z,6.83
2018-09-30T17:04:46.191Z,5.87
2018-09-30T17:07:16.098Z,7.30
2018-09-30T17:09:50.740Z,8.93
2018-09-30T17:12:21.991Z,8.77
2018-09-30T17:14:50.589Z,9.43
2018-09-30T17:17:19.173Z,5.77
2018-09-30T17:19:47.702Z,11.03
2018-09-30T17:22:17.094Z,12.37
2018-09-30T17:24:52.344Z,6.63
2018-09-30T17:27:23.478Z,7.63
2018-09-30T17:29:57.178Z,7.03
2018-09-30T17:32:30.220Z,6.73
2018-09-30T17:35:07.696Z,8.17
2018-09-30T17:37:37.213Z,6.33
2018-09-30T17:40:05.784Z,6.90
2018-09-30T17:42:34.275Z,6.60
2018-09-30T17:45:02.825Z,8.47
2018-09-30T17:47:31.343Z,6.33
2018-09-30T17:49:59.895Z,4.73
2018-09-30T17:52:28.441Z,4.53
2018-09-30T17:54:59.334Z,4.27
2018-09-30T17:57:30.921Z,5.13
2018-09-30T17:59:59.979Z,5.07
2018-09-30T18:02:31.342Z,5.50
2018-09-30T18:05:03.837Z,3.27
2018-09-30T18:07:35.499Z,5.23
2018-09-30T18:10:06.568Z,5.17
2018-09-30T18:12:36.450Z,12.57
2018-09-30T18:15:07.534Z,14.47
2018-09-30T18:17:37.640Z,12.00
2018-09-30T18:20:07.683Z,13.23
2018-09-30T18:22:38.323Z,9.97
2018-09-30T18:25:08.378Z,9.67
2018-09-30T18:27:38.957Z,10.50
2018-09-30T18:30:10.290Z,9.73
2018-09-30T18:32:39.905Z,10.27
2018-09-30T18:35:08.493Z,12.13
2018-09-30T18:37:39.105Z,12.23
2018-09-30T18:40:09.926Z,12.07
2018-09-30T18:42:44.361Z,9.40
2018-09-30T18:45:14.992Z,13.63
2018-09-30T18:47:47.503Z,15.73
2018-09-30T18:50:21.798Z,12.30
2018-09-30T18:52:53.606Z,11.73
2018-09-30T18:55:24.744Z,12.67
2018-09-30T18:57:58.125Z,10.47
2018-09-30T19:00:31.476Z,8.77
2018-09-30T19:03:03.504Z,9.27
2018-09-30T19:05:33.751Z,11.73
2018-09-30T19:08:07.162Z,11.20
2018-09-30T19:10:37.265Z,10.93
2018-09-30T19:13:08.622Z,11.77
2018-09-30T19:15:41.355Z,14.77
2018-09-30T19:18:21.213Z,13.63
2018-09-30T19:20:54.654Z,10.40
2018-09-30T19:23:24.581Z,11.10
2018-09-30T19:25:53.537Z,41.90
2018-09-30T19:28:22.046Z,10.70
2018-09-30T19:30:50.853Z,11.47
2018-09-30T19:33:19.410Z,6.90
2018-09-30T19:35:47.950Z,7.30
2018-09-30T19:38:16.688Z,10.50
2018-09-30T19:40:45.265Z,7.43
2018-09-30T19:43:13.801Z,8.60
2018-09-30T19:45:43.077Z,8.20
2018-09-30T19:48:11.720Z,6.97
2018-09-30T19:50:40.370Z,9.07
2018-09-30T19:53:11.877Z,9.43
2018-09-30T19:55:44.604Z,9.43
2018-09-30T19:58:27.675Z,9.33
2018-09-30T20:01:02.910Z,6.60
2018-09-30T20:06:15.066Z,6.63
2018-09-30T20:08:43.677Z,10.77
2018-09-30T20:11:12.342Z,8.17
2018-09-30T20:13:40.847Z,10.83
2018-09-30T20:16:09.818Z,9.30
2018-09-30T20:18:38.782Z,8.73
2018-09-30T20:21:08.300Z,9.67
2018-09-30T20:23:37.004Z,10.67
2018-09-30T20:26:06.624Z,30.50
2018-09-30T20:28:38.667Z,16.87
2018-09-30T20:31:08.975Z,22.27
2018-09-30T20:33:39.195Z,11.07
2018-09-30T20:36:08.637Z,12.47
2018-09-30T20:38:38.489Z,10.50
2018-09-30T20:41:10.408Z,9.17
2018-09-30T20:43:43.545Z,16.77
2018-09-30T20:46:14.565Z,11.53
2018-09-30T20:48:50.864Z,13.47
2018-09-30T20:51:22.607Z,12.60
2018-09-30T20:53:54.766Z,21.00
2018-09-30T20:56:25.322Z,7.83
2018-09-30T20:58:55.471Z,9.27
2018-09-30T21:01:25.660Z,13.40
2018-09-30T21:03:57.519Z,10.50
2018-09-30T21:06:28.542Z,9.37
2018-09-30T21:08:57.130Z,13.50
2018-09-30T21:11:25.927Z,11.47
2018-09-30T21:13:54.511Z,16.83
2018-09-30T21:16:23.061Z,31.90
2018-09-30T21:18:52.478Z,18.83
2018-09-30T21:21:21.100Z,13.57
2018-09-30T21:23:49.718Z,12.27
2018-09-30T21:26:18.307Z,11.73
2018-09-30T21:28:46.956Z,8.70
2018-09-30T21:31:15.518Z,8.53
2018-09-30T21:33:44.065Z,10.67
2018-09-30T21:36:12.670Z,10.13
2018-09-30T21:38:41.218Z,9.90
2018-09-30T21:41:09.778Z,6.83
2018-09-30T21:43:38.303Z,5.73
2018-09-30T21:46:06.887Z,11.20
2018-09-30T21:48:35.441Z,6.77
2018-09-30T21:51:04.067Z,8.43
2018-09-30T21:53:32.620Z,7.43
2018-09-30T21:56:01.145Z,8.73
